sensor_id;sensor_type;location;lat;lon;timestamp;pressure;altitude;pressure_sealevel;temperature;humidity
69836;BME280;57132;51.972;4.450;2022-08-19T00:01:35;101346.81;;;16.09;100.00
69836;BME280;57132;51.972;4.450;2022-08-19T00:04:05;101332.41;;;15.98;100.00
69836;BME280;57132;51.972;4.450;2022-08-19T00:06:31;101330.25;;;15.92;100.00
69836;BME280;57132;51.972;4.450;2022-08-19T00:08:58;101326.38;;;15.85;100.00
69836;BME280;57132;51.972;4.450;2022-08-19T00:11:26;101332.75;;;15.84;100.00
69836;BME280;57132;51.972;4.450;2022-08-19T00:13:54;101339.84;;;15.85;100.00
69836;BME280;57132;51.972;4.450;2022-08-19T00:16:20;101336.75;;;15.90;100.00
69836;BME280;57132;51.972;4.450;2022-08-19T00:18:47;101347.88;;;15.96;100.00
69836;BME280;57132;51.972;4.450;2022-08-19T00:21:13;101343.91;;;16.01;100.00
69836;BME280;57132;51.972;4.450;2022-08-19T00:23:39;101346.34;;;16.04;100.00
69836;BME280;57132;51.972;4.450;2022-08-19T00:26:06;101346.22;;;16.05;100.00
69836;BME280;57132;51.972;4.450;2022-08-19T00:28:33;101349.75;;;16.06;100.00
69836;BME280;57132;51.972;4.450;2022-08-19T00:31:01;101354.03;;;16.08;100.00
69836;BME280;57132;51.972;4.450;2022-08-19T00:33:28;101349.50;;;16.09;100.00
69836;BME280;57132;51.972;4.450;2022-08-19T00:35:56;101349.34;;;16.10;100.00
69836;BME280;57132;51.972;4.450;2022-08-19T00:38:22;101348.56;;;15.98;100.00
69836;BME280;57132;51.972;4.450;2022-08-19T00:40:48;101352.69;;;15.82;100.00
69836;BME280;57132;51.972;4.450;2022-08-19T00:43:19;101341.59;;;15.75;100.00
69836;BME280;57132;51.972;4.450;2022-08-19T00:45:45;101345.28;;;15.74;100.00
69836;BME280;57132;51.972;4.450;2022-08-19T00:48:11;101344.44;;;15.73;100.00
69836;BME280;57132;51.972;4.450;2022-08-19T00:50:39;101346.88;;;15.77;100.00
69836;BME280;57132;51.972;4.450;2022-08-19T00:53:06;101353.09;;;15.77;100.00
69836;BME280;57132;51.972;4.450;2022-08-19T00:55:32;101358.09;;;15.82;100.00
69836;BME280;57132;51.972;4.450;2022-08-19T00:58:03;101356.00;;;15.85;100.00
69836;BME280;57132;51.972;4.450;2022-08-19T01:00:30;101352.31;;;15.86;100.00
69836;BME280;57132;51.972;4.450;2022-08-19T01:02:56;101358.69;;;15.85;100.00
69836;BME280;57132;51.972;4.450;2022-08-19T01:05:27;101360.78;;;15.82;100.00
69836;BME280;57132;51.972;4.450;2022-08-19T01:07:54;101350.16;;;15.80;100.00
69836;BME280;57132;51.972;4.450;2022-08-19T01:10:23;101348.31;;;15.81;100.00
69836;BME280;57132;51.972;4.450;2022-08-19T01:12:49;101352.84;;;15.80;100.00
69836;BME280;57132;51.972;4.450;2022-08-19T01:15:18;101356.38;;;15.81;100.00
69836;BME280;57132;51.972;4.450;2022-08-19T01:17:45;101360.91;;;15.80;100.00
69836;BME280;57132;51.972;4.450;2022-08-19T01:20:14;101364.56;;;15.79;100.00
69836;BME280;57132;51.972;4.450;2022-08-19T01:22:46;101356.50;;;15.79;100.00
69836;BME280;57132;51.972;4.450;2022-08-19T01:25:14;101354.66;;;15.80;100.00
69836;BME280;57132;51.972;4.450;2022-08-19T01:27:47;101355.53;;;15.80;100.00
69836;BME280;57132;51.972;4.450;2022-08-19T01:30:16;101353.56;;;15.82;100.00
69836;BME280;57132;51.972;4.450;2022-08-19T01:32:42;101356.84;;;15.86;100.00
69836;BME280;57132;51.972;4.450;2022-08-19T01:35:09;101359.38;;;15.87;100.00
69836;BME280;57132;51.972;4.450;2022-08-19T01:37:56;101360.00;;;15.91;100.00
69836;BME280;57132;51.972;4.450;2022-08-19T01:40:26;101363.41;;;15.93;100.00
69836;BME280;57132;51.972;4.450;2022-08-19T01:42:52;101357.88;;;15.94;100.00
69836;BME280;57132;51.972;4.450;2022-08-19T01:45:19;101356.91;;;15.95;100.00
69836;BME280;57132;51.972;4.450;2022-08-19T01:47:46;101355.94;;;15.96;100.00
69836;BME280;57132;51.972;4.450;2022-08-19T01:50:12;101352.84;;;16.01;100.00
69836;BME280;57132;51.972;4.450;2022-08-19T01:52:39;101355.00;;;16.07;100.00
69836;BME280;57132;51.972;4.450;2022-08-19T01:55:08;101358.28;;;16.11;100.00
69836;BME280;57132;51.972;4.450;2022-08-19T01:57:34;101357.19;;;16.13;100.00
69836;BME280;57132;51.972;4.450;2022-08-19T02:00:00;101352.38;;;16.17;100.00
69836;BME280;57132;51.972;4.450;2022-08-19T02:02:28;101347.31;;;16.23;100.00
69836;BME280;57132;51.972;4.450;2022-08-19T02:04:53;101342.78;;;16.24;100.00
69836;BME280;57132;51.972;4.450;2022-08-19T02:07:22;101345.75;;;16.21;100.00
69836;BME280;57132;51.972;4.450;2022-08-19T02:09:48;101348.28;;;16.22;100.00
69836;BME280;57132;51.972;4.450;2022-08-19T02:12:14;101345.19;;;16.27;100.00
69836;BME280;57132;51.972;4.450;2022-08-19T02:14:40;101353.16;;;16.29;100.00
69836;BME280;57132;51.972;4.450;2022-08-19T02:17:05;101354.00;;;16.29;100.00
69836;BME280;57132;51.972;4.450;2022-08-19T02:19:31;101350.47;;;16.29;100.00
69836;BME280;57132;51.972;4.450;2022-08-19T02:21:58;101359.84;;;16.34;100.00
69836;BME280;57132;51.972;4.450;2022-08-19T02:24:23;101352.94;;;16.41;100.00
69836;BME280;57132;51.972;4.450;2022-08-19T02:26:49;101356.47;;;16.42;100.00
69836;BME280;57132;51.972;4.450;2022-08-19T02:29:14;101351.94;;;16.42;100.00
69836;BME280;57132;51.972;4.450;2022-08-19T02:31:39;101355.06;;;16.38;100.00
69836;BME280;57132;51.972;4.450;2022-08-19T02:34:04;101348.22;;;16.34;100.00
69836;BME280;57132;51.972;4.450;2022-08-19T02:36:30;101349.31;;;16.31;100.00
69836;BME280;57132;51.972;4.450;2022-08-19T02:38:55;101347.63;;;16.30;100.00
69836;BME280;57132;51.972;4.450;2022-08-19T02:41:27;101354.16;;;16.28;100.00
69836;BME280;57132;51.972;4.450;2022-08-19T02:43:57;101344.50;;;16.25;100.00
69836;BME280;57132;51.972;4.450;2022-08-19T02:46:29;101342.06;;;16.22;100.00
69836;BME280;57132;51.972;4.450;2022-08-19T02:48:57;101335.22;;;16.18;100.00
69836;BME280;57132;51.972;4.450;2022-08-19T02:51:36;101331.53;;;16.19;100.00
69836;BME280;57132;51.972;4.450;2022-08-19T02:54:03;101322.03;;;16.15;100.00
69836;BME280;57132;51.972;4.450;2022-08-19T02:56:30;101323.75;;;16.16;100.00
69836;BME280;57132;51.972;4.450;2022-08-19T02:58:56;101322.75;;;16.17;100.00
69836;BME280;57132;51.972;4.450;2022-08-19T03:01:24;101325.91;;;16.22;100.00
69836;BME280;57132;51.972;4.450;2022-08-19T03:03:51;101326.34;;;16.27;100.00
69836;BME280;57132;51.972;4.450;2022-08-19T03:06:17;101320.41;;;16.23;100.00
69836;BME280;57132;51.972;4.450;2022-08-19T03:08:44;101317.22;;;16.18;100.00
69836;BME280;57132;51.972;4.450;2022-08-19T03:11:20;101310.41;;;16.14;100.00
69836;BME280;57132;51.972;4.450;2022-08-19T03:13:46;101314.09;;;16.13;100.00
69836;BME280;57132;51.972;4.450;2022-08-19T03:16:14;101313.94;;;16.15;100.00
69836;BME280;57132;51.972;4.450;2022-08-19T03:18:39;101321.66;;;16.19;100.00
69836;BME280;57132;51.972;4.450;2022-08-19T03:21:05;101317.47;;;16.15;100.00
69836;BME280;57132;51.972;4.450;2022-08-19T03:23:31;101314.69;;;16.17;100.00
69836;BME280;57132;51.972;4.450;2022-08-19T03:25:57;101313.00;;;16.26;100.00
69836;BME280;57132;51.972;4.450;2022-08-19T03:28:22;101309.66;;;16.33;100.00
69836;BME280;57132;51.972;4.450;2022-08-19T03:30:59;101314.63;;;16.38;100.00
69836;BME280;57132;51.972;4.450;2022-08-19T03:33:25;101311.94;;;16.38;100.00
69836;BME280;57132;51.972;4.450;2022-08-19T03:36:09;101309.50;;;16.35;100.00
69836;BME280;57132;51.972;4.450;2022-08-19T03:38:39;101306.97;;;16.33;100.00
69836;BME280;57132;51.972;4.450;2022-08-19T03:41:07;101311.50;;;16.33;100.00
69836;BME280;57132;51.972;4.450;2022-08-19T03:43:37;101310.50;;;16.34;100.00
69836;BME280;57132;51.972;4.450;2022-08-19T03:46:15;101308.66;;;16.34;100.00
69836;BME280;57132;51.972;4.450;2022-08-19T03:48:42;101307.97;;;16.32;100.00
69836;BME280;57132;51.972;4.450;2022-08-19T03:51:14;101315.19;;;16.32;100.00
69836;BME280;57132;51.972;4.450;2022-08-19T03:53:40;101318.00;;;16.30;100.00
69836;BME280;57132;51.972;4.450;2022-08-19T03:56:08;101327.06;;;16.29;100.00
69836;BME280;57132;51.972;4.450;2022-08-19T03:58:34;101326.34;;;16.27;100.00
69836;BME280;57132;51.972;4.450;2022-08-19T04:00:59;101327.59;;;16.23;100.00
69836;BME280;57132;51.972;4.450;2022-08-19T04:03:25;101326.88;;;16.21;100.00
69836;BME280;57132;51.972;4.450;2022-08-19T04:05:52;101335.81;;;16.21;100.00
69836;BME280;57132;51.972;4.450;2022-08-19T04:08:18;101336.41;;;16.25;100.00
69836;BME280;57132;51.972;4.450;2022-08-19T04:10:46;101338.84;;;16.28;100.00
69836;BME280;57132;51.972;4.450;2022-08-19T04:13:12;101341.56;;;16.38;100.00
69836;BME280;57132;51.972;4.450;2022-08-19T04:15:43;101341.34;;;16.51;100.00
69836;BME280;57132;51.972;4.450;2022-08-19T04:18:10;101346.25;;;16.66;100.00
69836;BME280;57132;51.972;4.450;2022-08-19T04:20:43;101335.41;;;16.78;100.00
69836;BME280;57132;51.972;4.450;2022-08-19T04:23:09;101340.84;;;16.87;100.00
69836;BME280;57132;51.972;4.450;2022-08-19T04:25:40;101342.84;;;16.95;100.00
69836;BME280;57132;51.972;4.450;2022-08-19T04:28:06;101337.03;;;17.00;100.00
69836;BME280;57132;51.972;4.450;2022-08-19T04:30:43;101336.75;;;17.03;100.00
69836;BME280;57132;51.972;4.450;2022-08-19T04:33:10;101339.31;;;17.04;100.00
69836;BME280;57132;51.972;4.450;2022-08-19T04:35:38;101340.59;;;17.10;100.00
69836;BME280;57132;51.972;4.450;2022-08-19T04:38:05;101334.06;;;17.12;100.00
69836;BME280;57132;51.972;4.450;2022-08-19T04:40:30;101335.50;;;17.16;100.00
69836;BME280;57132;51.972;4.450;2022-08-19T04:43:14;101334.38;;;17.19;100.00
69836;BME280;57132;51.972;4.450;2022-08-19T04:45:44;101337.50;;;17.24;100.00
69836;BME280;57132;51.972;4.450;2022-08-19T04:48:09;101335.50;;;17.26;100.00
69836;BME280;57132;51.972;4.450;2022-08-19T04:50:35;101338.78;;;17.30;100.00
69836;BME280;57132;51.972;4.450;2022-08-19T04:53:01;101339.09;;;17.27;100.00
69836;BME280;57132;51.972;4.450;2022-08-19T04:55:26;101338.94;;;17.28;100.00
69836;BME280;57132;51.972;4.450;2022-08-19T04:57:52;101339.50;;;17.32;100.00
69836;BME280;57132;51.972;4.450;2022-08-19T05:00:17;101339.09;;;17.36;100.00
69836;BME280;57132;51.972;4.450;2022-08-19T05:02:42;101337.81;;;17.40;100.00
69836;BME280;57132;51.972;4.450;2022-08-19T05:05:08;101346.75;;;17.41;100.00
69836;BME280;57132;51.972;4.450;2022-08-19T05:07:34;101351.88;;;17.44;100.00
69836;BME280;57132;51.972;4.450;2022-08-19T05:09:59;101357.84;;;17.48;100.00
69836;BME280;57132;51.972;4.450;2022-08-19T05:12:25;101352.16;;;17.51;100.00
69836;BME280;57132;51.972;4.450;2022-08-19T05:14:52;101361.69;;;17.55;100.00
69836;BME280;57132;51.972;4.450;2022-08-19T05:17:17;101363.13;;;17.59;100.00
69836;BME280;57132;51.972;4.450;2022-08-19T05:19:43;101352.72;;;17.64;100.00
69836;BME280;57132;51.972;4.450;2022-08-19T05:22:27;101350.03;;;17.64;100.00
69836;BME280;57132;51.972;4.450;2022-08-19T05:25:10;101343.78;;;17.63;100.00
69836;BME280;57132;51.972;4.450;2022-08-19T05:27:37;101348.47;;;17.71;100.00
69836;BME280;57132;51.972;4.450;2022-08-19T05:30:03;101341.38;;;17.70;100.00
69836;BME280;57132;51.972;4.450;2022-08-19T05:32:28;101340.38;;;17.71;100.00
69836;BME280;57132;51.972;4.450;2022-08-19T05:34:54;101339.81;;;17.77;100.00
69836;BME280;57132;51.972;4.450;2022-08-19T05:37:19;101332.72;;;17.76;100.00
69836;BME280;57132;51.972;4.450;2022-08-19T05:39:45;101333.28;;;17.80;100.00
69836;BME280;57132;51.972;4.450;2022-08-19T05:42:11;101335.28;;;17.87;100.00
69836;BME280;57132;51.972;4.450;2022-08-19T05:44:40;101344.78;;;17.91;100.00
69836;BME280;57132;51.972;4.450;2022-08-19T05:47:09;101332.88;;;17.94;100.00
69836;BME280;57132;51.972;4.450;2022-08-19T05:49:36;101333.84;;;18.03;100.00
69836;BME280;57132;51.972;4.450;2022-08-19T05:52:04;101342.06;;;18.11;100.00
69836;BME280;57132;51.972;4.450;2022-08-19T05:54:30;101337.50;;;18.11;100.00
69836;BME280;57132;51.972;4.450;2022-08-19T05:56:56;101337.63;;;18.19;100.00
69836;BME280;57132;51.972;4.450;2022-08-19T05:59:22;101347.88;;;18.26;100.00
69836;BME280;57132;51.972;4.450;2022-08-19T06:01:50;101342.44;;;18.35;100.00
69836;BME280;57132;51.972;4.450;2022-08-19T06:04:17;101332.84;;;18.51;100.00
69836;BME280;57132;51.972;4.450;2022-08-19T06:06:48;101333.63;;;18.61;100.00
69836;BME280;57132;51.972;4.450;2022-08-19T06:09:15;101339.00;;;18.80;100.00
69836;BME280;57132;51.972;4.450;2022-08-19T06:11:49;101330.31;;;19.04;100.00
69836;BME280;57132;51.972;4.450;2022-08-19T06:14:20;101340.44;;;19.30;100.00
69836;BME280;57132;51.972;4.450;2022-08-19T06:16:46;101349.50;;;19.74;100.00
69836;BME280;57132;51.972;4.450;2022-08-19T06:19:15;101343.38;;;20.08;100.00
69836;BME280;57132;51.972;4.450;2022-08-19T06:21:43;101347.34;;;20.22;100.00
69836;BME280;57132;51.972;4.450;2022-08-19T06:24:11;101351.28;;;20.27;100.00
69836;BME280;57132;51.972;4.450;2022-08-19T06:26:42;101345.28;;;20.16;100.00
69836;BME280;57132;51.972;4.450;2022-08-19T06:29:10;101342.28;;;20.01;100.00
69836;BME280;57132;51.972;4.450;2022-08-19T06:31:36;101340.53;;;19.74;100.00
69836;BME280;57132;51.972;4.450;2022-08-19T06:34:04;101336.41;;;19.52;100.00
69836;BME280;57132;51.972;4.450;2022-08-19T06:36:36;101335.97;;;19.56;100.00
69836;BME280;57132;51.972;4.450;2022-08-19T06:39:04;101342.63;;;19.62;100.00
69836;BME280;57132;51.972;4.450;2022-08-19T06:41:32;101348.19;;;19.78;100.00
69836;BME280;57132;51.972;4.450;2022-08-19T06:43:59;101345.91;;;19.92;100.00
69836;BME280;57132;51.972;4.450;2022-08-19T06:46:25;101348.50;;;19.93;100.00
69836;BME280;57132;51.972;4.450;2022-08-19T06:48:51;101347.72;;;19.83;100.00
69836;BME280;57132;51.972;4.450;2022-08-19T06:51:18;101340.28;;;19.67;100.00
69836;BME280;57132;51.972;4.450;2022-08-19T06:53:48;101355.75;;;19.57;100.00
69836;BME280;57132;51.972;4.450;2022-08-19T06:56:16;101345.53;;;19.33;100.00
69836;BME280;57132;51.972;4.450;2022-08-19T06:58:42;101343.59;;;19.25;100.00
69836;BME280;57132;51.972;4.450;2022-08-19T07:01:08;101342.19;;;19.21;100.00
69836;BME280;57132;51.972;4.450;2022-08-19T07:03:35;101345.28;;;19.26;100.00
69836;BME280;57132;51.972;4.450;2022-08-19T07:06:06;101343.13;;;19.30;100.00
69836;BME280;57132;51.972;4.450;2022-08-19T07:08:33;101345.75;;;19.39;100.00
69836;BME280;57132;51.972;4.450;2022-08-19T07:10:59;101353.09;;;19.47;100.00
69836;BME280;57132;51.972;4.450;2022-08-19T07:13:25;101358.34;;;19.76;100.00
69836;BME280;57132;51.972;4.450;2022-08-19T07:15:51;101355.91;;;19.91;100.00
69836;BME280;57132;51.972;4.450;2022-08-19T07:18:18;101364.28;;;19.98;100.00
69836;BME280;57132;51.972;4.450;2022-08-19T07:20:44;101366.38;;;20.04;100.00
69836;BME280;57132;51.972;4.450;2022-08-19T07:23:10;101365.50;;;20.03;100.00
69836;BME280;57132;51.972;4.450;2022-08-19T07:25:37;101366.31;;;19.96;100.00
69836;BME280;57132;51.972;4.450;2022-08-19T07:28:02;101365.69;;;19.84;100.00
69836;BME280;57132;51.972;4.450;2022-08-19T07:30:29;101372.28;;;19.81;100.00
69836;BME280;57132;51.972;4.450;2022-08-19T07:32:55;101369.72;;;19.80;100.00
69836;BME280;57132;51.972;4.450;2022-08-19T07:35:22;101373.59;;;19.77;100.00
69836;BME280;57132;51.972;4.450;2022-08-19T07:37:48;101370.50;;;19.72;100.00
69836;BME280;57132;51.972;4.450;2022-08-19T07:40:14;101369.31;;;19.75;100.00
69836;BME280;57132;51.972;4.450;2022-08-19T07:42:39;101371.19;;;19.74;100.00
69836;BME280;57132;51.972;4.450;2022-08-19T07:45:06;101376.59;;;19.74;100.00
69836;BME280;57132;51.972;4.450;2022-08-19T07:47:31;101375.22;;;19.70;100.00
69836;BME280;57132;51.972;4.450;2022-08-19T07:49:56;101374.53;;;19.68;100.00
69836;BME280;57132;51.972;4.450;2022-08-19T07:52:22;101361.50;;;19.72;100.00
69836;BME280;57132;51.972;4.450;2022-08-19T07:54:47;101370.50;;;19.72;100.00
69836;BME280;57132;51.972;4.450;2022-08-19T07:57:13;101374.25;;;19.79;100.00
69836;BME280;57132;51.972;4.450;2022-08-19T07:59:38;101377.69;;;19.81;100.00
69836;BME280;57132;51.972;4.450;2022-08-19T08:02:04;101377.94;;;19.88;100.00
69836;BME280;57132;51.972;4.450;2022-08-19T08:04:31;101381.69;;;19.95;100.00
69836;BME280;57132;51.972;4.450;2022-08-19T08:07:15;101383.66;;;20.11;100.00
69836;BME280;57132;51.972;4.450;2022-08-19T08:09:59;101383.16;;;20.33;100.00
69836;BME280;57132;51.972;4.450;2022-08-19T08:12:29;101389.34;;;20.44;100.00
69836;BME280;57132;51.972;4.450;2022-08-19T08:14:58;101382.06;;;20.44;100.00
69836;BME280;57132;51.972;4.450;2022-08-19T08:17:28;101392.56;;;20.65;100.00
69836;BME280;57132;51.972;4.450;2022-08-19T08:19:54;101397.13;;;20.91;100.00
69836;BME280;57132;51.972;4.450;2022-08-19T08:22:21;101396.84;;;21.18;100.00
69836;BME280;57132;51.972;4.450;2022-08-19T08:25:09;101399.63;;;21.26;100.00
69836;BME280;57132;51.972;4.450;2022-08-19T08:27:39;101401.94;;;21.13;100.00
69836;BME280;57132;51.972;4.450;2022-08-19T08:30:15;101403.94;;;21.03;100.00
69836;BME280;57132;51.972;4.450;2022-08-19T08:32:42;101405.59;;;20.96;100.00
69836;BME280;57132;51.972;4.450;2022-08-19T08:35:11;101405.28;;;20.99;100.00
69836;BME280;57132;51.972;4.450;2022-08-19T08:37:37;101413.41;;;20.91;100.00
69836;BME280;57132;51.972;4.450;2022-08-19T08:40:06;101406.25;;;20.90;100.00
69836;BME280;57132;51.972;4.450;2022-08-19T08:42:40;101403.53;;;20.90;100.00
69836;BME280;57132;51.972;4.450;2022-08-19T08:45:13;101403.22;;;20.93;100.00
69836;BME280;57132;51.972;4.450;2022-08-19T08:47:44;101399.50;;;21.02;100.00
69836;BME280;57132;51.972;4.450;2022-08-19T08:50:41;101405.41;;;21.31;100.00
69836;BME280;57132;51.972;4.450;2022-08-19T08:53:10;101404.63;;;21.47;99.16
69836;BME280;57132;51.972;4.450;2022-08-19T08:55:36;101407.50;;;21.46;98.65
69836;BME280;57132;51.972;4.450;2022-08-19T08:58:09;101407.50;;;21.54;98.83
69836;BME280;57132;51.972;4.450;2022-08-19T09:00:39;101409.56;;;21.60;98.20
69836;BME280;57132;51.972;4.450;2022-08-19T09:03:16;101407.06;;;21.67;97.84
69836;BME280;57132;51.972;4.450;2022-08-19T09:05:48;101409.91;;;21.65;97.86
69836;BME280;57132;51.972;4.450;2022-08-19T09:08:29;101408.94;;;21.74;99.33
69836;BME280;57132;51.972;4.450;2022-08-19T09:10:58;101409.81;;;21.99;97.83
69836;BME280;57132;51.972;4.450;2022-08-19T09:16:22;101408.13;;;22.23;94.36
69836;BME280;57132;51.972;4.450;2022-08-19T09:18:55;101412.38;;;22.25;92.97
69836;BME280;57132;51.972;4.450;2022-08-19T09:21:24;101421.19;;;22.11;91.52
69836;BME280;57132;51.972;4.450;2022-08-19T09:23:50;101414.56;;;22.05;91.49
69836;BME280;57132;51.972;4.450;2022-08-19T09:26:19;101424.41;;;21.98;90.71
69836;BME280;57132;51.972;4.450;2022-08-19T09:28:47;101425.59;;;21.88;90.84
69836;BME280;57132;51.972;4.450;2022-08-19T09:31:15;101433.19;;;21.68;91.20
69836;BME280;57132;51.972;4.450;2022-08-19T09:33:41;101428.59;;;21.60;92.62
69836;BME280;57132;51.972;4.450;2022-08-19T09:36:10;101433.00;;;21.53;93.53
69836;BME280;57132;51.972;4.450;2022-08-19T09:38:36;101430.94;;;21.47;94.48
69836;BME280;57132;51.972;4.450;2022-08-19T09:41:06;101425.84;;;21.44;95.35
69836;BME280;57132;51.972;4.450;2022-08-19T09:43:33;101434.50;;;21.47;95.62
69836;BME280;57132;51.972;4.450;2022-08-19T09:46:04;101421.09;;;21.54;95.27
69836;BME280;57132;51.972;4.450;2022-08-19T09:48:32;101426.38;;;21.55;94.57
69836;BME280;57132;51.972;4.450;2022-08-19T09:51:24;101431.84;;;21.64;93.54
69836;BME280;57132;51.972;4.450;2022-08-19T09:53:51;101432.34;;;21.67;92.32
69836;BME280;57132;51.972;4.450;2022-08-19T09:56:20;101424.41;;;21.82;92.47
69836;BME280;57132;51.972;4.450;2022-08-19T09:58:46;101431.88;;;21.96;90.59
69836;BME280;57132;51.972;4.450;2022-08-19T10:01:20;101429.16;;;22.04;89.31
69836;BME280;57132;51.972;4.450;2022-08-19T10:03:51;101430.56;;;22.25;88.82
69836;BME280;57132;51.972;4.450;2022-08-19T10:06:17;101426.97;;;22.49;89.73
69836;BME280;57132;51.972;4.450;2022-08-19T10:08:43;101423.66;;;22.86;89.56
69836;BME280;57132;51.972;4.450;2022-08-19T10:11:09;101429.88;;;23.11;87.08
69836;BME280;57132;51.972;4.450;2022-08-19T10:13:35;101431.38;;;23.22;83.20
69836;BME280;57132;51.972;4.450;2022-08-19T10:16:07;101439.06;;;23.18;82.55
69836;BME280;57132;51.972;4.450;2022-08-19T10:18:33;101437.28;;;22.94;84.53
69836;BME280;57132;51.972;4.450;2022-08-19T10:21:09;101425.66;;;23.09;83.07
69836;BME280;57132;51.972;4.450;2022-08-19T10:23:39;101432.88;;;22.93;81.37
69836;BME280;57132;51.972;4.450;2022-08-19T10:26:06;101430.16;;;22.77;82.63
69836;BME280;57132;51.972;4.450;2022-08-19T10:28:35;101430.63;;;22.80;83.42
69836;BME280;57132;51.972;4.450;2022-08-19T10:31:05;101431.53;;;22.73;84.62
69836;BME280;57132;51.972;4.450;2022-08-19T10:33:31;101424.88;;;22.67;84.83
69836;BME280;57132;51.972;4.450;2022-08-19T10:36:15;101432.75;;;22.62;84.35
69836;BME280;57132;51.972;4.450;2022-08-19T10:38:43;101427.94;;;22.72;85.23
69836;BME280;57132;51.972;4.450;2022-08-19T10:41:21;101426.75;;;22.75;84.91
69836;BME280;57132;51.972;4.450;2022-08-19T10:43:54;101425.56;;;22.77;84.61
69836;BME280;57132;51.972;4.450;2022-08-19T10:46:21;101427.97;;;22.64;84.82
69836;BME280;57132;51.972;4.450;2022-08-19T10:48:48;101422.50;;;22.64;85.77
69836;BME280;57132;51.972;4.450;2022-08-19T10:51:15;101420.47;;;22.66;85.50
69836;BME280;57132;51.972;4.450;2022-08-19T10:53:59;101423.69;;;22.78;84.58
69836;BME280;57132;51.972;4.450;2022-08-19T10:56:26;101428.09;;;22.79;84.01
69836;BME280;57132;51.972;4.450;2022-08-19T10:59:10;101432.50;;;22.80;83.62
69836;BME280;57132;51.972;4.450;2022-08-19T11:01:37;101431.19;;;22.68;83.87
69836;BME280;57132;51.972;4.450;2022-08-19T11:04:04;101428.31;;;22.69;83.68
69836;BME280;57132;51.972;4.450;2022-08-19T11:06:32;101418.94;;;22.64;85.04
69836;BME280;57132;51.972;4.450;2022-08-19T11:08:58;101422.50;;;22.64;85.79
69836;BME280;57132;51.972;4.450;2022-08-19T11:11:26;101420.81;;;22.63;86.25
69836;BME280;57132;51.972;4.450;2022-08-19T11:13:51;101425.22;;;22.64;86.01
69836;BME280;57132;51.972;4.450;2022-08-19T11:16:22;101425.75;;;22.59;85.03
69836;BME280;57132;51.972;4.450;2022-08-19T11:18:54;101428.81;;;22.56;85.42
69836;BME280;57132;51.972;4.450;2022-08-19T11:21:26;101431.56;;;22.48;85.68
69836;BME280;57132;51.972;4.450;2022-08-19T11:23:55;101432.06;;;22.44;86.93
69836;BME280;57132;51.972;4.450;2022-08-19T11:26:22;101428.00;;;22.40;86.87
69836;BME280;57132;51.972;4.450;2022-08-19T11:28:48;101426.97;;;22.41;87.62
69836;BME280;57132;51.972;4.450;2022-08-19T11:31:17;101422.56;;;22.40;86.30
69836;BME280;57132;51.972;4.450;2022-08-19T11:33:43;101421.69;;;22.47;85.73
69836;BME280;57132;51.972;4.450;2022-08-19T11:36:09;101422.19;;;22.59;85.69
69836;BME280;57132;51.972;4.450;2022-08-19T11:38:36;101426.56;;;22.76;86.23
69836;BME280;57132;51.972;4.450;2022-08-19T11:41:05;101430.81;;;22.79;84.31
69836;BME280;57132;51.972;4.450;2022-08-19T11:43:33;101437.09;;;22.96;85.29
69836;BME280;57132;51.972;4.450;2022-08-19T11:45:59;101428.88;;;23.04;84.74
69836;BME280;57132;51.972;4.450;2022-08-19T11:48:25;101427.88;;;23.05;84.17
69836;BME280;57132;51.972;4.450;2022-08-19T11:50:52;101427.16;;;23.11;83.50
69836;BME280;57132;51.972;4.450;2022-08-19T11:53:20;101421.44;;;22.98;84.86
69836;BME280;57132;51.972;4.450;2022-08-19T11:55:47;101422.78;;;23.02;86.03
69836;BME280;57132;51.972;4.450;2022-08-19T11:58:13;101416.78;;;23.15;85.89
69836;BME280;57132;51.972;4.450;2022-08-19T12:00:39;101431.13;;;23.40;84.67
69836;BME280;57132;51.972;4.450;2022-08-19T12:03:05;101438.19;;;23.57;83.64
69836;BME280;57132;51.972;4.450;2022-08-19T12:05:31;101427.59;;;23.62;81.88
69836;BME280;57132;51.972;4.450;2022-08-19T12:07:56;101438.19;;;23.57;82.81
69836;BME280;57132;51.972;4.450;2022-08-19T12:10:22;101433.84;;;23.40;83.70
69836;BME280;57132;51.972;4.450;2022-08-19T12:12:48;101438.13;;;23.34;83.73
69836;BME280;57132;51.972;4.450;2022-08-19T12:15:13;101435.25;;;23.27;84.50
69836;BME280;57132;51.972;4.450;2022-08-19T12:17:40;101432.72;;;23.26;85.10
69836;BME280;57132;51.972;4.450;2022-08-19T12:20:08;101431.66;;;23.35;85.94
69836;BME280;57132;51.972;4.450;2022-08-19T12:22:38;101429.22;;;23.48;85.83
69836;BME280;57132;51.972;4.450;2022-08-19T12:25:06;101437.00;;;23.51;83.30
69836;BME280;57132;51.972;4.450;2022-08-19T12:27:32;101428.72;;;23.45;85.02
69836;BME280;57132;51.972;4.450;2022-08-19T12:29:57;101429.88;;;23.50;84.38
69836;BME280;57132;51.972;4.450;2022-08-19T12:32:26;101431.75;;;23.50;84.14
69836;BME280;57132;51.972;4.450;2022-08-19T12:34:51;101422.94;;;23.40;85.77
69836;BME280;57132;51.972;4.450;2022-08-19T12:37:17;101425.41;;;23.26;88.11
69836;BME280;57132;51.972;4.450;2022-08-19T12:39:42;101428.13;;;23.26;90.19
69836;BME280;57132;51.972;4.450;2022-08-19T12:42:12;101413.66;;;23.26;91.41
69836;BME280;57132;51.972;4.450;2022-08-19T12:44:40;101414.91;;;23.46;91.38
69836;BME280;57132;51.972;4.450;2022-08-19T12:47:06;101411.91;;;23.64;88.93
69836;BME280;57132;51.972;4.450;2022-08-19T12:49:33;101409.66;;;23.76;85.35
69836;BME280;57132;51.972;4.450;2022-08-19T12:52:02;101415.41;;;23.81;83.54